Time;durP1;ratioP1;P1;durP2;ratioP2;P2;SDS_P1;SDS_P2;PMS_P1;PMS_P2;Temp;Humidity;BMP_temperature;BMP_pressure;BME280_temperature;BME280_humidity;BME280_pressure;Samples;Min_cycle;Max_cycle;Signal;HPM_P1;HPM_P2
2022/08/22 08:01:58;;;;;;;17.92;11.30;;;;;;;19.89;74.18;101441.56;5317961;27;1433088;-72
2022/08/22 08:04:34;;;;;;;13.75;9.88;;;;;;;20.02;74.62;101441.63;5344043;27;20516;-73
2022/08/22 08:07:07;;;;;;;;;;;;;;;20.15;74.23;101438.59;5344629;27;20466;-72
2022/08/22 08:10:02;;;;;;;9.02;7.72;;;;;;;20.30;72.69;101437.19;5342150;27;19912;-73
2022/08/22 08:12:41;;;;;;;13.18;8.18;;;;;;;20.34;72.02;101428.88;5330087;28;20027;-72
2022/08/22 08:15:17;;;;;;;11.57;8.07;;;;;;;20.38;71.20;101435.47;5322735;28;20027;-71
2022/08/22 08:17:55;;;;;;;12.90;8.52;;;;;;;20.40;71.75;101439.59;5321445;28;20382;-71
2022/08/22 08:20:28;;;;;;;12.23;8.35;;;;;;;20.48;71.39;101429.44;5322481;28;20027;-71
2022/08/22 08:23:01;;;;;;;12.38;8.13;;;;;;;20.55;70.75;101428.91;5321466;28;20047;-72
2022/08/22 08:25:50;;;;;;;11.05;8.23;;;;;;;20.70;69.80;101425.47;5322731;28;20081;-71
2022/08/22 08:28:34;;;;;;;12.10;7.25;;;;;;;20.81;69.33;101420.22;5322982;28;20032;-73
2022/08/22 08:31:38;;;;;;;14.77;7.55;;;;;;;20.91;68.95;101418.97;5321781;28;20352;-73
2022/08/22 08:34:23;;;;;;;16.48;7.45;;;;;;;20.93;68.45;101423.09;5322139;28;20023;-72
2022/08/22 08:37:09;;;;;;;9.15;6.82;;;;;;;20.97;67.14;101424.06;5322060;28;20020;-72
2022/08/22 08:39:48;;;;;;;;;;;;;;;21.11;67.72;101423.75;5322226;28;20035;-71
2022/08/22 08:42:25;;;;;;;18.77;8.75;;;;;;;21.15;67.03;101427.53;5322156;28;20391;-72
2022/08/22 08:45:08;;;;;;;8.23;6.05;;;;;;;21.16;65.74;101423.53;5321517;28;20027;-72
2022/08/22 08:48:01;;;;;;;11.25;6.63;;;;;;;21.25;66.21;101423.44;5321923;28;20107;-72
2022/08/22 08:50:39;;;;;;;11.40;7.38;;;;;;;21.23;66.55;101422.97;5321957;28;20031;-71
2022/08/22 08:53:38;;;;;;;11.35;6.75;;;;;;;21.27;65.11;101416.28;5321441;28;20035;-73
2022/08/22 08:56:24;;;;;;;14.65;9.98;;;;;;;21.27;64.70;101419.09;5342859;28;20024;-73
2022/08/22 08:59:18;;;;;;;13.82;6.18;;;;;;;21.31;63.92;101421.22;5341957;27;20428;-73
2022/08/22 09:02:13;;;;;;;7.78;5.35;;;;;;;21.37;64.14;101419.81;5341804;27;20135;-73
2022/08/22 09:05:24;;;;;;;11.75;7.63;;;;;;;21.38;64.44;101422.34;5342743;27;20028;-73
2022/08/22 09:08:18;;;;;;;12.65;7.18;;;;;;;21.36;65.04;101415.34;5327919;28;20106;-72
2022/08/22 09:11:24;;;;;;;8.65;7.15;;;;;;;21.41;65.03;101415.16;5331122;28;20107;-73
2022/08/22 09:14:20;;;;;;;9.73;5.63;;;;;;;21.44;64.01;101415.28;5306157;28;20390;-73
2022/08/22 09:16:54;;;;;;;;;;;;;;;21.49;63.98;101414.22;5307662;28;20768;-68
2022/08/22 09:19:52;;;;;;;11.88;7.10;;;;;;;21.44;63.40;101408.81;5306819;28;19919;-69
2022/08/22 09:23:06;;;;;;;12.18;7.18;;;;;;;21.46;63.40;101418.56;5306844;28;20024;-69
2022/08/22 09:25:50;;;;;;;11.52;7.05;;;;;;;21.47;63.91;101403.31;5307006;28;20356;-68
2022/08/22 09:28:33;;;;;;;11.68;7.20;;;;;;;21.56;63.65;101402.38;5305918;28;20106;-68
2022/08/22 09:31:22;;;;;;;10.07;6.68;;;;;;;21.60;62.04;101406.13;5306595;28;20185;-68
2022/08/22 09:34:16;;;;;;;11.63;6.97;;;;;;;21.62;62.43;101401.78;5306049;28;20058;-68
2022/08/22 09:37:03;;;;;;;11.45;6.32;;;;;;;21.71;62.23;101407.31;5307112;28;20016;-72
2022/08/22 09:39:49;;;;;;;9.98;6.03;;;;;;;21.77;62.12;101410.72;5306606;28;20032;-72
2022/08/22 09:42:31;;;;;;;10.15;6.68;;;;;;;21.81;62.20;101411.69;5306125;28;20028;-73
2022/08/22 09:45:05;;;;;;;9.20;5.78;;;;;;;21.88;61.74;101412.75;5320842;28;20035;-72
2022/08/22 09:47:42;;;;;;;9.48;6.10;;;;;;;21.91;61.93;101408.41;5326423;28;20028;-71
2022/08/22 09:50:23;;;;;;;12.02;5.95;;;;;;;21.92;60.92;101410.03;5327450;28;20023;-73
2022/08/22 09:53:15;;;;;;;11.77;4.90;;;;;;;21.99;59.96;101410.25;5326786;27;20019;-72
2022/08/22 09:56:16;;;;;;;8.77;4.53;;;;;;;22.08;57.16;101402.47;5326674;28;20024;-72
2022/08/22 09:59:01;;;;;;;11.40;5.22;;;;;;;22.25;58.64;101406.25;5327594;28;20463;-71
2022/08/22 10:01:43;;;;;;;8.70;4.40;;;;;;;22.39;56.91;101398.22;5326415;28;20059;-72
2022/08/22 10:04:33;;;;;;;8.13;4.68;;;;;;;22.40;57.54;101396.22;5327284;28;20020;-72
2022/08/22 10:07:39;;;;;;;14.13;5.13;;;;;;;22.57;57.06;101393.94;5327264;28;20024;-72
2022/08/22 10:10:41;;;;;;;8.80;4.10;;;;;;;22.62;55.33;101390.00;5290437;28;20108;-72
2022/08/22 10:13:28;;;;;;;9.15;4.15;;;;;;;22.75;54.02;101390.78;5321054;28;20068;-72
2022/08/22 10:16:17;;;;;;;7.75;3.70;;;;;;;22.72;54.53;101378.19;5324549;28;20427;-73
2022/08/22 10:19:21;;;;;;;5.60;3.78;;;;;;;22.79;55.28;101380.41;5326887;28;20062;-73
2022/08/22 10:22:17;;;;;;;7.20;4.05;;;;;;;22.77;54.64;101382.78;5301724;28;20047;-74
2022/08/22 10:25:06;;;;;;;6.78;4.18;;;;;;;23.02;53.81;101379.88;5324960;28;20509;-74
2022/08/22 10:28:20;;;;;;;8.85;3.72;;;;;;;23.05;53.96;101377.13;5326448;28;20098;-78
2022/08/22 10:31:42;;;;;;;11.13;4.85;;;;;;;23.15;53.01;101385.09;5325308;28;20035;-79
2022/08/22 10:34:46;;;;;;;13.05;5.50;;;;;;;23.17;53.69;101376.25;5326901;28;20478;-75
2022/08/22 10:37:44;;;;;;;11.90;5.22;;;;;;;23.06;53.14;101373.13;5306331;28;20048;-76
2022/08/22 10:40:33;;;;;;;8.88;4.95;;;;;;;23.04;53.15;101374.69;5316715;28;20416;-76
2022/08/22 10:43:12;;;;;;;11.00;4.72;;;;;;;23.16;53.52;101368.94;5326158;28;20031;-76
2022/08/22 10:45:46;;;;;;;8.25;3.90;;;;;;;23.12;52.47;101362.38;5322851;28;20473;-76
2022/08/22 10:48:29;;;;;;;8.77;4.57;;;;;;;23.34;53.01;101358.94;5316145;28;20059;-76
2022/08/22 10:51:09;;;;;;;10.13;3.83;;;;;;;23.49;51.82;101359.28;5304597;28;20036;-75
2022/08/22 10:54:22;;;;;;;10.32;3.72;;;;;;;23.51;51.85;101356.91;5322233;28;20035;-73
2022/08/22 10:57:23;;;;;;;8.38;4.28;;;;;;;23.57;51.18;101361.94;5325579;28;20051;-74
2022/08/22 11:00:13;;;;;;;8.75;4.55;;;;;;;23.49;50.83;101356.44;5319376;28;20043;-76
2022/08/22 11:02:59;;;;;;;6.15;3.13;;;;;;;23.49;50.45;101354.44;5306776;28;20433;-77
2022/08/22 11:05:39;;;;;;;11.02;3.75;;;;;;;23.51;51.36;101352.06;5304381;28;20028;-78
2022/08/22 11:08:51;;;;;;;9.65;4.85;;;;;;;23.48;50.99;101354.81;5306526;28;20379;-76
2022/08/22 11:11:41;;;;;;;9.50;4.40;;;;;;;23.42;51.73;101352.25;5314072;28;20394;-76
2022/08/22 11:14:31;;;;;;;5.70;3.67;;;;;;;23.50;52.08;101355.28;5307252;28;20519;-77
2022/08/22 11:17:31;;;;;;;9.07;4.20;;;;;;;23.59;52.66;101358.72;5325899;28;20110;-78
2022/08/22 11:20:27;;;;;;;6.55;4.22;;;;;;;23.74;51.37;101359.94;5313624;28;20028;-77
2022/08/22 11:23:30;;;;;;;15.20;13.65;;;;;;;23.75;50.73;101351.06;5326232;28;20023;-77
2022/08/22 11:26:16;;;;;;;26.17;23.52;;;;;;;23.79;50.25;101349.13;5303835;28;20487;-76
2022/08/22 11:29:12;;;;;;;6.95;3.90;;;;;;;23.77;50.49;101345.84;5304698;28;20047;-74
2022/08/22 11:31:47;;;;;;;9.27;3.72;;;;;;;23.81;49.69;101346.75;5308311;28;20431;-75
2022/08/22 11:34:46;;;;;;;8.75;3.70;;;;;;;23.63;49.29;101348.31;5323597;28;20421;-75
2022/08/22 11:37:56;;;;;;;9.98;3.25;;;;;;;23.72;50.30;101339.63;5325281;28;20071;-75
2022/08/22 11:40:55;;;;;;;25.00;13.15;;;;;;;23.71;49.37;101335.16;5316095;28;20399;-77
2022/08/22 11:43:48;;;;;;;13.88;9.27;;;;;;;23.83;49.93;101341.56;5326038;28;20106;-75
2022/08/22 11:46:34;;;;;;;6.80;3.30;;;;;;;23.83;48.91;101341.56;5304018;28;20036;-77
2022/08/22 11:49:11;;;;;;;4.72;3.33;;;;;;;23.91;49.11;101336.88;5309686;28;20020;-76
2022/08/22 11:51:59;;;;;;;7.13;3.40;;;;;;;23.95;49.19;101334.13;5315711;28;20367;-75
2022/08/22 11:55:07;;;;;;;12.25;3.40;;;;;;;23.99;48.95;101324.50;5303259;28;20124;-75
2022/08/22 11:57:45;;;;;;;7.60;3.17;;;;;;;24.05;48.57;101331.53;5323683;28;20032;-76
2022/08/22 12:00:19;;;;;;;10.15;3.78;;;;;;;23.99;48.35;101332.19;5324674;28;20527;-78
2022/08/22 12:03:16;;;;;;;6.65;3.10;;;;;;;24.00;48.62;101328.16;5303947;28;20082;-72
2022/08/22 12:06:34;;;;;;;8.10;3.97;;;;;;;23.96;48.10;101330.94;5320071;28;20130;-74
2022/08/22 12:09:15;;;;;;;7.47;3.17;;;;;;;23.93;48.54;101334.50;5237602;28;20025;-74
2022/08/22 12:12:19;;;;;;;9.25;3.53;;;;;;;24.01;48.60;101333.47;5238402;28;20039;-75
2022/08/22 12:15:06;;;;;;;9.20;3.60;;;;;;;23.96;48.48;101335.78;5296985;28;20083;-75
2022/08/22 12:17:52;;;;;;;33.03;27.73;;;;;;;23.94;47.75;101329.66;5303276;28;20165;-73
2022/08/22 12:20:51;;;;;;;18.52;10.43;;;;;;;23.94;48.42;101329.66;5316005;28;20085;-77
2022/08/22 12:23:59;;;;;;;8.98;4.22;;;;;;;23.97;48.05;101334.56;5323627;28;20035;-76
2022/08/22 12:26:52;;;;;;;6.93;3.38;;;;;;;23.86;47.84;101335.16;5324397;28;20012;-77
2022/08/22 12:29:37;;;;;;;7.28;3.85;;;;;;;23.94;47.55;101336.13;5321729;28;20032;-77
2022/08/22 12:32:42;;;;;;;7.78;4.30;;;;;;;24.01;48.53;101329.81;5307014;28;20368;-77
2022/08/22 12:35:43;;;;;;;6.10;3.55;;;;;;;23.96;48.57;101336.59;5303938;28;20112;-76
2022/08/22 12:38:23;;;;;;;9.88;3.78;;;;;;;23.95;48.03;101334.94;5302895;28;20028;-77
2022/08/22 12:40:58;;;;;;;8.63;4.15;;;;;;;24.00;47.94;101325.31;5313389;28;20027;-76
2022/08/22 12:43:38;;;;;;;20.38;16.73;;;;;;;24.07;47.75;101325.50;5322934;28;20437;-76
2022/08/22 12:46:36;;;;;;;8.10;4.22;;;;;;;24.10;47.75;101324.75;5325171;28;20019;-76
2022/08/22 12:49:55;;;;;;;7.53;4.30;;;;;;;24.17;47.87;101318.44;5328364;28;20463;-76
2022/08/22 12:52:38;;;;;;;7.45;3.63;;;;;;;24.21;48.17;101317.31;5298215;28;20090;-77
2022/08/22 12:55:31;;;;;;;7.72;3.42;;;;;;;24.28;47.55;101314.63;5315725;28;20094;-76
2022/08/22 12:58:23;;;;;;;38.63;31.25;;;;;;;24.28;47.41;101308.94;5326677;28;20032;-76
2022/08/22 13:01:09;;;;;;;34.60;25.23;;;;;;;24.14;47.29;101305.81;5327602;28;20511;-76
2022/08/22 13:03:52;;;;;;;8.65;4.22;;;;;;;24.22;47.73;101303.97;5329198;28;20038;-75
2022/08/22 13:06:32;;;;;;;11.70;3.67;;;;;;;24.36;48.22;101300.59;5328098;28;20067;-76
2022/08/22 13:09:29;;;;;;;7.32;4.43;;;;;;;24.37;47.77;101290.94;5326577;28;20390;-74
2022/08/22 13:12:20;;;;;;;7.28;3.90;;;;;;;24.59;47.13;101298.66;5307098;28;20024;-75
2022/08/22 13:14:57;;;;;;;6.25;3.35;;;;;;;24.68;46.74;101287.94;5311502;28;20024;-76
2022/08/22 13:17:29;;;;;;;8.50;3.70;;;;;;;25.07;45.60;101290.66;5314170;28;20024;-76
2022/08/22 13:20:09;;;;;;;7.28;3.67;;;;;;;25.03;45.29;101292.63;5321176;28;20077;-76
2022/08/22 13:22:42;;;;;;;6.43;3.47;;;;;;;25.06;45.42;101294.72;5334351;28;20028;-78
2022/08/22 13:25:19;;;;;;;11.05;3.83;;;;;;;24.95;44.66;101294.53;5324956;27;20057;-77
2022/08/22 13:27:54;;;;;;;9.27;4.15;;;;;;;24.87;44.74;101286.25;5310527;28;20024;-76
2022/08/22 13:30:32;;;;;;;;;;;;;;;25.04;45.47;101285.75;5322906;28;20034;-79
2022/08/22 13:33:11;;;;;;;6.90;3.65;;;;;;;25.11;45.02;101288.72;5324601;28;20378;-76
2022/08/22 13:35:48;;;;;;;7.57;3.67;;;;;;;25.15;44.86;101291.59;5307385;28;20040;-75
2022/08/22 13:38:27;;;;;;;28.08;24.95;;;;;;;25.02;44.21;101276.78;5306975;28;20016;-77
2022/08/22 13:41:01;;;;;;;8.48;3.70;;;;;;;25.09;44.29;101276.09;5316725;28;20058;-77
2022/08/22 13:44:09;;;;;;;9.05;7.03;;;;;;;24.90;43.68;101274.13;5321307;28;20020;-75
2022/08/22 13:46:41;;;;;;;8.45;4.00;;;;;;;24.85;43.94;101274.44;5310069;28;20046;-74
2022/08/22 13:49:19;;;;;;;10.98;4.53;;;;;;;24.78;43.98;101260.97;5317750;28;20024;-76
2022/08/22 13:52:00;;;;;;;9.20;3.70;;;;;;;24.78;44.54;101260.97;5325594;28;20027;-77
2022/08/22 13:54:38;;;;;;;8.52;4.00;;;;;;;24.79;43.74;101267.47;5327016;28;20377;-77
2022/08/22 13:57:33;;;;;;;9.18;3.60;;;;;;;24.74;43.87;101266.56;5327776;28;20047;-77
2022/08/22 14:00:34;;;;;;;8.27;3.25;;;;;;;24.81;44.62;101256.56;5321234;28;20040;-77
2022/08/22 14:03:16;;;;;;;6.00;3.28;;;;;;;24.85;43.76;101254.59;5318884;28;20028;-78
2022/08/22 14:05:57;;;;;;;8.52;3.38;;;;;;;24.87;43.27;101252.19;5317719;28;20038;-78
2022/08/22 14:08:33;;;;;;;6.72;3.05;;;;;;;24.93;43.71;101253.53;5305787;28;20028;-78
2022/08/22 14:11:30;;;;;;;8.23;3.53;;;;;;;25.06;43.21;101249.31;5306510;28;20019;-78
2022/08/22 14:14:04;;;;;;;3.95;2.92;;;;;;;25.04;43.11;101246.03;5306204;28;20035;-77
2022/08/22 14:16:38;;;;;;;7.93;3.30;;;;;;;25.12;43.68;101247.78;5319467;28;20103;-77
2022/08/22 14:19:17;;;;;;;8.48;2.92;;;;;;;25.10;43.64;101250.16;5315750;28;20024;-77
2022/08/22 14:21:58;;;;;;;6.28;2.95;;;;;;;25.08;43.67;101251.75;5305256;28;20024;-77
2022/08/22 14:24:43;;;;;;;12.75;3.78;;;;;;;25.08;43.41;101252.59;5320276;28;20030;-76
2022/08/22 14:27:26;;;;;;;25.98;23.42;;;;;;;25.14;43.06;101258.75;5311185;28;20107;-77
2022/08/22 14:30:04;;;;;;;18.20;16.35;;;;;;;25.19;43.57;101260.50;5308447;28;20030;-77
2022/08/22 14:32:54;;;;;;;8.02;3.47;;;;;;;25.25;43.56;101256.94;5312423;28;20065;-74
2022/08/22 14:35:33;;;;;;;10.48;3.25;;;;;;;25.33;43.44;101249.34;5326195;28;20027;-76
2022/08/22 14:38:21;;;;;;;6.35;3.55;;;;;;;25.42;43.12;101249.91;5326102;28;20038;-78
2022/08/22 14:41:09;;;;;;;11.15;4.07;;;;;;;25.40;43.31;101246.63;5326391;28;20100;-76
2022/08/22 14:43:57;;;;;;;8.95;2.83;;;;;;;25.42;42.58;101244.25;5305055;28;20432;-77
2022/08/22 14:46:58;;;;;;;9.73;3.45;;;;;;;25.43;42.39;101247.91;5326111;28;20041;-76
2022/08/22 14:49:48;;;;;;;7.13;2.95;;;;;;;25.44;42.61;101247.53;5321066;28;20042;-75
2022/08/22 14:52:47;;;;;;;6.50;3.05;;;;;;;25.43;42.32;101237.34;5306075;28;20025;-75
2022/08/22 14:55:25;;;;;;;7.90;2.97;;;;;;;25.44;42.20;101241.00;5321369;28;20024;-76
2022/08/22 14:58:12;;;;;;;7.18;3.30;;;;;;;25.37;42.39;101244.56;5309408;28;20020;-77
2022/08/22 15:00:49;;;;;;;8.95;4.10;;;;;;;25.32;42.28;101239.22;5305149;28;20441;-77
2022/08/22 15:03:41;;;;;;;6.22;3.00;;;;;;;25.34;43.50;101242.50;5315076;28;20057;-76
2022/08/22 15:06:30;;;;;;;11.13;8.02;;;;;;;25.45;43.33;101236.97;5304026;28;20031;-77
2022/08/22 15:09:10;;;;;;;7.47;3.80;;;;;;;25.44;42.65;101230.50;5304555;28;20081;-74
2022/08/22 15:11:46;;;;;;;7.75;3.15;;;;;;;25.56;41.96;101233.09;5303446;28;20060;-73
2022/08/22 15:14:28;;;;;;;7.55;3.38;;;;;;;25.64;41.82;101233.19;5306097;28;20080;-76
2022/08/22 15:17:04;;;;;;;24.60;21.83;;;;;;;25.49;42.58;101232.16;5321873;28;20036;-76
2022/08/22 15:19:45;;;;;;;6.63;4.47;;;;;;;25.50;42.30;101233.81;5332503;28;20049;-79
2022/08/22 15:22:25;;;;;;;6.43;3.88;;;;;;;25.51;43.36;101230.56;5326891;28;20106;-75
2022/08/22 15:25:15;;;;;;;4.90;2.70;;;;;;;25.59;43.01;101220.97;5314412;28;20469;-75
2022/08/22 15:27:52;;;;;;;6.20;2.95;;;;;;;25.60;42.71;101219.78;5315439;28;20386;-76
2022/08/22 15:30:40;;;;;;;7.63;3.03;;;;;;;25.73;42.13;101225.22;5318241;28;20028;-75
2022/08/22 15:33:20;;;;;;;10.68;7.43;;;;;;;25.77;40.92;101218.38;5315589;28;20386;-73
2022/08/22 15:36:05;;;;;;;14.30;10.68;;;;;;;25.71;41.15;101216.25;5328503;28;20031;-75
2022/08/22 15:38:47;;;;;;;7.15;3.45;;;;;;;25.84;40.88;101209.13;5327930;28;20451;-77
2022/08/22 15:41:24;;;;;;;7.90;2.63;;;;;;;25.75;41.15;101214.28;5324134;28;20035;-76
2022/08/22 15:44:23;;;;;;;6.80;2.70;;;;;;;25.78;40.26;101213.53;5326198;28;20382;-75
2022/08/22 15:47:32;;;;;;;5.85;3.13;;;;;;;25.73;39.89;101202.50;5310709;28;20024;-77
2022/08/22 15:50:29;;;;;;;4.63;3.05;;;;;;;25.74;40.76;101209.81;5305260;28;20387;-73
2022/08/22 15:53:19;;;;;;;6.45;2.88;;;;;;;25.81;40.79;101204.22;5304698;28;20061;-77
2022/08/22 15:56:08;;;;;;;8.05;4.25;;;;;;;25.79;40.95;101200.94;5304765;28;20020;-77
2022/08/22 15:58:43;;;;;;;5.90;3.30;;;;;;;25.95;41.93;101198.78;5307113;28;20027;-77
2022/08/22 16:01:19;;;;;;;8.23;3.47;;;;;;;25.98;42.03;101191.50;5302494;28;20070;-72
2022/08/22 16:04:02;;;;;;;6.60;3.08;;;;;;;25.83;42.28;101189.66;5319751;28;20035;-73
2022/08/22 16:06:45;;;;;;;6.70;3.03;;;;;;;26.05;41.92;101190.75;5306665;28;20115;-72
2022/08/22 16:09:37;;;;;;;8.55;3.10;;;;;;;25.92;39.35;101181.66;5303092;28;20409;-73
2022/08/22 16:12:34;;;;;;;5.13;2.47;;;;;;;25.93;38.09;101175.59;5305228;28;20031;-74
2022/08/22 16:15:43;;;;;;;6.00;3.42;;;;;;;25.80;39.46;101179.88;5302744;28;20035;-74
2022/08/22 16:18:33;;;;;;;8.50;3.08;;;;;;;25.76;40.13;101173.31;5303629;28;20028;-74
2022/08/22 16:21:07;;;;;;;4.68;2.67;;;;;;;25.67;41.63;101173.63;5303557;28;20028;-74
2022/08/22 16:23:52;;;;;;;8.15;3.85;;;;;;;25.80;40.96;101171.34;5311892;28;20055;-74
2022/08/22 16:26:29;;;;;;;4.78;2.53;;;;;;;25.85;40.83;101173.88;5307308;28;20443;-74
2022/08/22 16:29:09;;;;;;;5.35;3.33;;;;;;;25.72;41.52;101167.59;5307259;28;20064;-74
2022/08/22 16:31:43;;;;;;;6.40;3.42;;;;;;;25.68;42.09;101165.91;5307423;28;20027;-73
2022/08/22 16:34:20;;;;;;;6.85;3.15;;;;;;;25.58;42.22;101168.22;5319710;28;20035;-74
2022/08/22 16:37:21;;;;;;;5.97;2.85;;;;;;;25.56;41.89;101170.63;5327199;27;20016;-73
2022/08/22 16:39:56;;;;;;;10.77;6.25;;;;;;;25.58;42.32;101168.22;5308385;28;20050;-72
2022/08/22 16:42:40;;;;;;;15.48;13.38;;;;;;;25.72;41.54;101163.91;5311016;28;20378;-73
2022/08/22 16:45:20;;;;;;;7.35;3.33;;;;;;;25.83;41.55;101162.06;5319510;28;20032;-72
2022/08/22 16:47:55;;;;;;;9.93;2.83;;;;;;;25.87;42.40;101162.13;5307483;28;20028;-72
2022/08/22 16:50:32;;;;;;;4.55;3.17;;;;;;;25.99;41.63;101159.84;5318798;28;20030;-72
2022/08/22 16:53:08;;;;;;;9.25;3.60;;;;;;;25.99;41.33;101159.03;5327233;28;20497;-73
2022/08/22 16:55:43;;;;;;;8.93;3.30;;;;;;;26.10;41.08;101159.94;5325448;27;20032;-73
2022/08/22 16:58:31;;;;;;;12.63;3.05;;;;;;;26.08;41.71;101156.69;5307145;28;20383;-74
2022/08/22 17:01:21;;;;;;;5.93;3.25;;;;;;;26.19;41.91;101151.13;5313410;28;20160;-75
2022/08/22 17:04:15;;;;;;;8.98;3.55;;;;;;;26.20;41.49;101152.75;5306266;28;20124;-74
2022/08/22 17:07:09;;;;;;;8.77;3.65;;;;;;;26.02;41.70;101149.72;5306168;28;20081;-73
2022/08/22 17:09:55;;;;;;;9.82;3.45;;;;;;;26.09;41.70;101146.16;5321388;28;20371;-74
2022/08/22 17:12:44;;;;;;;6.25;3.05;;;;;;;26.15;41.88;101141.72;5323117;28;20169;-74
2022/08/22 17:15:42;;;;;;;7.22;2.85;;;;;;;26.05;41.43;101150.97;5325745;28;20024;-73
2022/08/22 17:18:44;;;;;;;13.13;7.55;;;;;;;25.88;42.26;101141.84;5327621;28;20136;-74
2022/08/22 17:21:26;;;;;;;9.07;3.22;;;;;;;25.84;42.44;101148.66;5306578;28;20031;-75
2022/08/22 17:24:25;;;;;;;7.47;2.95;;;;;;;25.74;42.68;101150.97;5307500;28;20032;-74
2022/08/22 17:27:33;;;;;;;4.25;3.20;;;;;;;25.72;42.49;101150.56;5305928;28;20024;-74
2022/08/22 17:30:28;;;;;;;7.32;4.50;;;;;;;25.76;41.67;101156.28;5312899;28;20038;-75
2022/08/22 17:33:14;;;;;;;8.05;3.97;;;;;;;25.69;41.78;101151.31;5323630;28;20039;-75
